Hendrix, Mississippi
Current Conditions -  °F | °C
As of 3:53 PM on Friday 31 Oct 2014 (Local Time) from KGWO Reporting Station
Overcast Overcast  
Wind Chill: 59°   Ceiling: 4000
Heat Index: 59°   Visibility: 10mi
Dew Point: 43°   Wind: 13mph
Humidity: 55%   Direction: 350°N
Pressure: 30.12"   Gusts: 25mph
Location:  33.3807°N, 89.5554°W
Report Text: KGWO 312053Z AUTO 35011G22KT 10SM OVC040 15/06 A3012 RMK AO2 PK WND 35026/1959 SLP200 T01500061 53011 TSNO
Loading
Personal Weather Stations






























Interactive Weather Map
Tropical Storm Tracking
New forecast layout! Learn more

10-Day Weather Forecast

Advertisements
Track Severe Weather on mobile